sensor_id;sensor_type;location;lat;lon;timestamp;P1;durP1;ratioP1;P2;durP2;ratioP2
60336;SDS011;46978;50.288;28.624;2023-03-15T02:59:11;6.43;;;2.93;;
60336;SDS011;46978;50.288;28.624;2023-03-15T03:00:12;6.40;;;2.91;;
60336;SDS011;46978;50.288;28.624;2023-03-15T03:01:15;5.79;;;3.24;;
60336;SDS011;46978;50.288;28.624;2023-03-15T03:02:18;5.96;;;3.36;;
60336;SDS011;46978;50.288;28.624;2023-03-15T03:03:20;7.21;;;3.36;;
60336;SDS011;46978;50.288;28.624;2023-03-15T03:04:21;6.35;;;3.09;;
60336;SDS011;46978;50.288;28.624;2023-03-15T03:05:23;8.31;;;3.26;;
60336;SDS011;46978;50.288;28.624;2023-03-15T03:06:25;5.81;;;3.10;;
60336;SDS011;46978;50.288;28.624;2023-03-15T03:07:26;5.06;;;2.75;;
60336;SDS011;46978;50.288;28.624;2023-03-15T03:08:28;6.16;;;3.31;;
60336;SDS011;46978;50.288;28.624;2023-03-15T03:09:30;5.48;;;2.92;;
60336;SDS011;46978;50.288;28.624;2023-03-15T03:10:31;8.09;;;3.27;;
60336;SDS011;46978;50.288;28.624;2023-03-15T03:11:33;5.72;;;2.99;;
60336;SDS011;46978;50.288;28.624;2023-03-15T03:12:35;8.78;;;2.99;;
60336;SDS011;46978;50.288;28.624;2023-03-15T03:13:36;6.31;;;3.14;;
60336;SDS011;46978;50.288;28.624;2023-03-15T03:14:38;5.46;;;3.03;;
60336;SDS011;46978;50.288;28.624;2023-03-15T03:15:40;4.28;;;2.36;;
60336;SDS011;46978;50.288;28.624;2023-03-15T03:17:47;4.56;;;2.90;;
60336;SDS011;46978;50.288;28.624;2023-03-15T03:18:48;5.99;;;2.89;;
60336;SDS011;46978;50.288;28.624;2023-03-15T03:19:50;5.31;;;3.18;;
60336;SDS011;46978;50.288;28.624;2023-03-15T03:20:55;5.67;;;2.86;;
60336;SDS011;46978;50.288;28.624;2023-03-15T03:21:58;5.12;;;2.86;;
60336;SDS011;46978;50.288;28.624;2023-03-15T03:23:00;5.66;;;3.29;;
60336;SDS011;46978;50.288;28.624;2023-03-15T03:24:01;5.54;;;2.83;;
60336;SDS011;46978;50.288;28.624;2023-03-15T03:25:03;5.28;;;2.85;;
60336;SDS011;46978;50.288;28.624;2023-03-15T03:26:11;5.67;;;3.22;;
60336;SDS011;46978;50.288;28.624;2023-03-15T03:27:14;7.27;;;3.83;;
60336;SDS011;46978;50.288;28.624;2023-03-15T03:28:17;7.24;;;4.34;;
60336;SDS011;46978;50.288;28.624;2023-03-15T03:29:18;8.51;;;4.51;;
60336;SDS011;46978;50.288;28.624;2023-03-15T03:30:21;9.37;;;5.58;;
60336;SDS011;46978;50.288;28.624;2023-03-15T03:31:24;10.07;;;5.07;;
60336;SDS011;46978;50.288;28.624;2023-03-15T03:32:28;9.88;;;5.89;;
60336;SDS011;46978;50.288;28.624;2023-03-15T03:33:30;7.69;;;4.69;;
60336;SDS011;46978;50.288;28.624;2023-03-15T03:34:32;5.97;;;3.36;;
60336;SDS011;46978;50.288;28.624;2023-03-15T03:35:33;5.57;;;3.34;;
60336;SDS011;46978;50.288;28.624;2023-03-15T03:36:35;4.89;;;2.85;;
60336;SDS011;46978;50.288;28.624;2023-03-15T03:37:37;7.70;;;3.36;;
60336;SDS011;46978;50.288;28.624;2023-03-15T03:38:39;5.37;;;2.95;;
60336;SDS011;46978;50.288;28.624;2023-03-15T03:39:42;6.05;;;2.84;;
60336;SDS011;46978;50.288;28.624;2023-03-15T03:40:44;5.95;;;3.01;;
60336;SDS011;46978;50.288;28.624;2023-03-15T03:41:46;5.13;;;3.15;;
60336;SDS011;46978;50.288;28.624;2023-03-15T03:42:48;5.15;;;2.69;;
60336;SDS011;46978;50.288;28.624;2023-03-15T03:43:50;5.91;;;3.09;;
60336;SDS011;46978;50.288;28.624;2023-03-15T03:44:52;5.37;;;2.99;;
60336;SDS011;46978;50.288;28.624;2023-03-15T03:45:53;6.33;;;3.23;;
60336;SDS011;46978;50.288;28.624;2023-03-15T03:46:55;5.19;;;3.12;;
60336;SDS011;46978;50.288;28.624;2023-03-15T03:47:57;5.03;;;3.05;;
60336;SDS011;46978;50.288;28.624;2023-03-15T03:48:59;5.54;;;3.01;;
60336;SDS011;46978;50.288;28.624;2023-03-15T03:50:00;7.06;;;3.33;;
60336;SDS011;46978;50.288;28.624;2023-03-15T03:51:02;6.40;;;3.19;;
60336;SDS011;46978;50.288;28.624;2023-03-15T03:52:04;6.87;;;3.95;;
60336;SDS011;46978;50.288;28.624;2023-03-15T03:53:06;12.19;;;7.29;;
60336;SDS011;46978;50.288;28.624;2023-03-15T03:54:08;15.79;;;8.67;;
60336;SDS011;46978;50.288;28.624;2023-03-15T03:55:10;10.60;;;6.69;;
60336;SDS011;46978;50.288;28.624;2023-03-15T03:56:12;7.92;;;4.67;;
60336;SDS011;46978;50.288;28.624;2023-03-15T03:57:14;10.37;;;5.27;;
60336;SDS011;46978;50.288;28.624;2023-03-15T03:58:16;13.46;;;7.18;;
60336;SDS011;46978;50.288;28.624;2023-03-15T03:59:18;9.65;;;5.84;;
60336;SDS011;46978;50.288;28.624;2023-03-15T04:00:20;10.27;;;6.45;;
60336;SDS011;46978;50.288;28.624;2023-03-15T04:01:21;10.03;;;5.05;;
60336;SDS011;46978;50.288;28.624;2023-03-15T04:02:23;15.64;;;8.27;;
60336;SDS011;46978;50.288;28.624;2023-03-15T04:03:25;10.74;;;5.67;;
60336;SDS011;46978;50.288;28.624;2023-03-15T04:04:27;11.15;;;6.28;;
60336;SDS011;46978;50.288;28.624;2023-03-15T04:05:28;9.36;;;5.42;;
60336;SDS011;46978;50.288;28.624;2023-03-15T04:06:30;7.83;;;4.77;;
60336;SDS011;46978;50.288;28.624;2023-03-15T04:07:32;8.48;;;4.46;;
60336;SDS011;46978;50.288;28.624;2023-03-15T04:08:34;6.34;;;3.78;;
60336;SDS011;46978;50.288;28.624;2023-03-15T04:09:35;6.97;;;4.25;;
60336;SDS011;46978;50.288;28.624;2023-03-15T04:10:39;6.46;;;4.05;;
60336;SDS011;46978;50.288;28.624;2023-03-15T04:11:41;9.18;;;4.20;;
60336;SDS011;46978;50.288;28.624;2023-03-15T04:12:43;8.15;;;3.75;;
60336;SDS011;46978;50.288;28.624;2023-03-15T04:13:45;6.69;;;3.99;;
60336;SDS011;46978;50.288;28.624;2023-03-15T04:14:48;7.21;;;3.59;;
60336;SDS011;46978;50.288;28.624;2023-03-15T04:15:49;7.98;;;3.85;;
60336;SDS011;46978;50.288;28.624;2023-03-15T04:16:52;8.14;;;4.09;;
60336;SDS011;46978;50.288;28.624;2023-03-15T04:17:54;5.45;;;3.40;;
60336;SDS011;46978;50.288;28.624;2023-03-15T04:18:55;7.42;;;3.84;;
60336;SDS011;46978;50.288;28.624;2023-03-15T04:19:57;7.49;;;4.10;;
60336;SDS011;46978;50.288;28.624;2023-03-15T04:20:59;5.61;;;3.57;;
60336;SDS011;46978;50.288;28.624;2023-03-15T04:22:00;7.06;;;3.48;;
60336;SDS011;46978;50.288;28.624;2023-03-15T04:23:02;5.91;;;3.57;;
60336;SDS011;46978;50.288;28.624;2023-03-15T04:24:04;6.64;;;3.61;;
60336;SDS011;46978;50.288;28.624;2023-03-15T04:25:06;6.63;;;3.64;;
60336;SDS011;46978;50.288;28.624;2023-03-15T04:26:09;6.21;;;3.55;;
60336;SDS011;46978;50.288;28.624;2023-03-15T04:27:11;5.89;;;3.74;;
60336;SDS011;46978;50.288;28.624;2023-03-15T04:28:12;5.84;;;3.23;;
60336;SDS011;46978;50.288;28.624;2023-03-15T04:29:14;5.09;;;3.50;;
60336;SDS011;46978;50.288;28.624;2023-03-15T04:30:16;6.23;;;3.56;;
60336;SDS011;46978;50.288;28.624;2023-03-15T04:31:18;6.14;;;3.49;;
60336;SDS011;46978;50.288;28.624;2023-03-15T04:32:19;6.44;;;3.82;;
60336;SDS011;46978;50.288;28.624;2023-03-15T04:33:21;6.47;;;3.16;;
60336;SDS011;46978;50.288;28.624;2023-03-15T04:34:23;5.77;;;3.41;;
60336;SDS011;46978;50.288;28.624;2023-03-15T04:35:25;5.83;;;3.69;;
60336;SDS011;46978;50.288;28.624;2023-03-15T04:36:27;6.49;;;3.70;;
60336;SDS011;46978;50.288;28.624;2023-03-15T04:37:29;8.33;;;4.29;;
60336;SDS011;46978;50.288;28.624;2023-03-15T04:38:31;7.13;;;3.76;;
60336;SDS011;46978;50.288;28.624;2023-03-15T04:39:33;5.86;;;3.40;;
60336;SDS011;46978;50.288;28.624;2023-03-15T04:40:34;6.01;;;3.59;;
60336;SDS011;46978;50.288;28.624;2023-03-15T04:41:36;4.96;;;3.21;;
60336;SDS011;46978;50.288;28.624;2023-03-15T04:42:38;5.66;;;3.42;;
60336;SDS011;46978;50.288;28.624;2023-03-15T04:43:40;6.17;;;3.66;;
60336;SDS011;46978;50.288;28.624;2023-03-15T04:44:42;6.64;;;3.85;;
60336;SDS011;46978;50.288;28.624;2023-03-15T04:45:44;5.95;;;3.51;;
60336;SDS011;46978;50.288;28.624;2023-03-15T04:46:46;6.07;;;3.46;;
60336;SDS011;46978;50.288;28.624;2023-03-15T04:47:48;6.97;;;3.90;;
60336;SDS011;46978;50.288;28.624;2023-03-15T04:48:50;7.14;;;3.76;;
60336;SDS011;46978;50.288;28.624;2023-03-15T04:49:52;9.29;;;3.89;;
60336;SDS011;46978;50.288;28.624;2023-03-15T04:50:53;7.24;;;3.74;;
60336;SDS011;46978;50.288;28.624;2023-03-15T04:51:55;6.09;;;3.39;;
60336;SDS011;46978;50.288;28.624;2023-03-15T04:52:57;7.87;;;4.03;;
60336;SDS011;46978;50.288;28.624;2023-03-15T04:53:59;6.92;;;3.81;;
60336;SDS011;46978;50.288;28.624;2023-03-15T04:55:01;6.82;;;3.72;;
60336;SDS011;46978;50.288;28.624;2023-03-15T04:56:03;7.47;;;4.05;;
60336;SDS011;46978;50.288;28.624;2023-03-15T04:57:05;6.83;;;4.01;;
60336;SDS011;46978;50.288;28.624;2023-03-15T04:58:06;7.39;;;4.13;;
60336;SDS011;46978;50.288;28.624;2023-03-15T04:59:08;8.45;;;3.88;;
60336;SDS011;46978;50.288;28.624;2023-03-15T05:00:11;7.34;;;3.80;;
60336;SDS011;46978;50.288;28.624;2023-03-15T05:01:13;9.50;;;4.31;;
60336;SDS011;46978;50.288;28.624;2023-03-15T05:02:15;6.90;;;4.04;;
60336;SDS011;46978;50.288;28.624;2023-03-15T05:03:17;7.85;;;4.08;;
60336;SDS011;46978;50.288;28.624;2023-03-15T05:04:18;6.36;;;4.39;;
60336;SDS011;46978;50.288;28.624;2023-03-15T05:05:21;7.56;;;3.92;;
60336;SDS011;46978;50.288;28.624;2023-03-15T05:06:23;6.58;;;3.77;;
60336;SDS011;46978;50.288;28.624;2023-03-15T05:07:25;6.25;;;3.86;;
60336;SDS011;46978;50.288;28.624;2023-03-15T05:08:26;6.44;;;3.69;;
60336;SDS011;46978;50.288;28.624;2023-03-15T05:09:28;7.76;;;4.24;;
60336;SDS011;46978;50.288;28.624;2023-03-15T05:10:30;6.95;;;4.54;;
60336;SDS011;46978;50.288;28.624;2023-03-15T05:11:32;7.51;;;4.21;;
60336;SDS011;46978;50.288;28.624;2023-03-15T05:12:33;8.16;;;3.76;;
60336;SDS011;46978;50.288;28.624;2023-03-15T05:13:35;7.59;;;4.07;;
60336;SDS011;46978;50.288;28.624;2023-03-15T05:14:36;7.13;;;3.69;;
60336;SDS011;46978;50.288;28.624;2023-03-15T05:15:38;8.04;;;3.76;;
60336;SDS011;46978;50.288;28.624;2023-03-15T05:16:40;7.41;;;3.89;;
60336;SDS011;46978;50.288;28.624;2023-03-15T05:17:42;8.06;;;4.26;;
60336;SDS011;46978;50.288;28.624;2023-03-15T05:18:43;6.95;;;4.44;;
60336;SDS011;46978;50.288;28.624;2023-03-15T05:19:45;8.56;;;4.04;;
60336;SDS011;46978;50.288;28.624;2023-03-15T05:20:47;6.28;;;3.78;;
60336;SDS011;46978;50.288;28.624;2023-03-15T05:21:49;9.11;;;4.27;;
60336;SDS011;46978;50.288;28.624;2023-03-15T05:22:50;11.92;;;5.39;;
60336;SDS011;46978;50.288;28.624;2023-03-15T05:23:52;12.40;;;5.72;;
60336;SDS011;46978;50.288;28.624;2023-03-15T05:24:54;10.45;;;5.34;;
60336;SDS011;46978;50.288;28.624;2023-03-15T05:25:55;7.64;;;4.41;;
60336;SDS011;46978;50.288;28.624;2023-03-15T05:26:57;9.54;;;4.16;;
60336;SDS011;46978;50.288;28.624;2023-03-15T05:27:58;10.71;;;4.47;;
60336;SDS011;46978;50.288;28.624;2023-03-15T05:29:00;7.89;;;4.14;;
60336;SDS011;46978;50.288;28.624;2023-03-15T05:30:02;8.01;;;4.02;;
60336;SDS011;46978;50.288;28.624;2023-03-15T05:31:05;7.20;;;3.75;;
60336;SDS011;46978;50.288;28.624;2023-03-15T05:32:06;7.76;;;3.97;;
60336;SDS011;46978;50.288;28.624;2023-03-15T05:33:08;7.06;;;4.21;;
60336;SDS011;46978;50.288;28.624;2023-03-15T05:34:10;7.41;;;4.14;;
60336;SDS011;46978;50.288;28.624;2023-03-15T05:35:11;6.79;;;3.66;;
60336;SDS011;46978;50.288;28.624;2023-03-15T05:36:13;6.42;;;4.13;;
60336;SDS011;46978;50.288;28.624;2023-03-15T05:37:15;7.00;;;3.66;;
60336;SDS011;46978;50.288;28.624;2023-03-15T05:38:17;7.11;;;3.63;;
60336;SDS011;46978;50.288;28.624;2023-03-15T05:39:19;7.22;;;3.93;;
60336;SDS011;46978;50.288;28.624;2023-03-15T05:40:20;7.21;;;4.15;;
60336;SDS011;46978;50.288;28.624;2023-03-15T05:41:22;6.80;;;4.24;;
60336;SDS011;46978;50.288;28.624;2023-03-15T05:42:24;7.36;;;4.46;;
60336;SDS011;46978;50.288;28.624;2023-03-15T05:43:26;8.36;;;4.67;;
60336;SDS011;46978;50.288;28.624;2023-03-15T05:44:27;9.20;;;5.41;;
60336;SDS011;46978;50.288;28.624;2023-03-15T05:45:29;9.06;;;5.04;;
60336;SDS011;46978;50.288;28.624;2023-03-15T05:48:15;10.24;;;4.62;;
60336;SDS011;46978;50.288;28.624;2023-03-15T05:49:16;8.23;;;4.63;;
60336;SDS011;46978;50.288;28.624;2023-03-15T05:50:18;8.39;;;5.35;;
60336;SDS011;46978;50.288;28.624;2023-03-15T05:51:20;8.87;;;4.84;;
60336;SDS011;46978;50.288;28.624;2023-03-15T05:52:21;9.05;;;5.17;;
60336;SDS011;46978;50.288;28.624;2023-03-15T05:53:23;6.03;;;4.06;;
60336;SDS011;46978;50.288;28.624;2023-03-15T05:54:25;7.52;;;4.74;;
60336;SDS011;46978;50.288;28.624;2023-03-15T05:55:27;8.75;;;4.53;;
60336;SDS011;46978;50.288;28.624;2023-03-15T05:56:28;8.21;;;4.80;;
60336;SDS011;46978;50.288;28.624;2023-03-15T05:57:30;8.89;;;4.94;;
60336;SDS011;46978;50.288;28.624;2023-03-15T05:58:32;6.39;;;4.09;;
60336;SDS011;46978;50.288;28.624;2023-03-15T05:59:34;7.80;;;4.15;;
60336;SDS011;46978;50.288;28.624;2023-03-15T06:00:36;6.39;;;4.25;;
60336;SDS011;46978;50.288;28.624;2023-03-15T06:01:37;6.56;;;4.24;;
60336;SDS011;46978;50.288;28.624;2023-03-15T06:02:40;8.00;;;4.32;;
60336;SDS011;46978;50.288;28.624;2023-03-15T06:03:42;7.21;;;4.53;;
60336;SDS011;46978;50.288;28.624;2023-03-15T06:04:44;7.91;;;4.45;;
60336;SDS011;46978;50.288;28.624;2023-03-15T06:05:45;7.46;;;4.58;;
60336;SDS011;46978;50.288;28.624;2023-03-15T06:06:47;7.66;;;4.68;;
60336;SDS011;46978;50.288;28.624;2023-03-15T06:07:49;7.40;;;4.43;;
60336;SDS011;46978;50.288;28.624;2023-03-15T06:08:51;7.23;;;4.67;;
60336;SDS011;46978;50.288;28.624;2023-03-15T06:09:52;9.36;;;5.09;;
60336;SDS011;46978;50.288;28.624;2023-03-15T06:10:54;9.17;;;5.15;;
60336;SDS011;46978;50.288;28.624;2023-03-15T06:11:56;8.37;;;5.29;;
60336;SDS011;46978;50.288;28.624;2023-03-15T06:12:58;11.71;;;5.30;;
60336;SDS011;46978;50.288;28.624;2023-03-15T06:14:00;8.43;;;4.77;;
60336;SDS011;46978;50.288;28.624;2023-03-15T06:15:02;9.36;;;4.82;;
60336;SDS011;46978;50.288;28.624;2023-03-15T06:16:04;10.43;;;4.73;;
60336;SDS011;46978;50.288;28.624;2023-03-15T06:17:06;7.28;;;4.67;;
60336;SDS011;46978;50.288;28.624;2023-03-15T06:18:07;9.34;;;4.84;;
60336;SDS011;46978;50.288;28.624;2023-03-15T06:19:09;8.63;;;4.92;;
60336;SDS011;46978;50.288;28.624;2023-03-15T06:20:12;10.59;;;5.23;;
60336;SDS011;46978;50.288;28.624;2023-03-15T06:21:14;8.65;;;5.17;;
60336;SDS011;46978;50.288;28.624;2023-03-15T06:22:15;10.12;;;5.14;;
60336;SDS011;46978;50.288;28.624;2023-03-15T06:23:17;10.21;;;5.67;;
60336;SDS011;46978;50.288;28.624;2023-03-15T06:24:19;11.45;;;5.21;;
60336;SDS011;46978;50.288;28.624;2023-03-15T06:25:20;12.30;;;6.37;;
60336;SDS011;46978;50.288;28.624;2023-03-15T06:26:22;10.26;;;5.64;;
60336;SDS011;46978;50.288;28.624;2023-03-15T06:27:24;10.88;;;5.94;;
60336;SDS011;46978;50.288;28.624;2023-03-15T06:28:26;11.45;;;5.48;;
60336;SDS011;46978;50.288;28.624;2023-03-15T06:29:27;11.89;;;5.74;;
60336;SDS011;46978;50.288;28.624;2023-03-15T06:30:29;12.97;;;6.35;;
60336;SDS011;46978;50.288;28.624;2023-03-15T06:31:31;9.06;;;6.51;;
60336;SDS011;46978;50.288;28.624;2023-03-15T06:32:33;10.14;;;6.29;;
60336;SDS011;46978;50.288;28.624;2023-03-15T06:33:34;9.75;;;5.99;;
60336;SDS011;46978;50.288;28.624;2023-03-15T06:34:36;10.59;;;6.16;;
60336;SDS011;46978;50.288;28.624;2023-03-15T06:35:38;10.41;;;6.10;;
60336;SDS011;46978;50.288;28.624;2023-03-15T06:36:40;10.59;;;5.45;;
60336;SDS011;46978;50.288;28.624;2023-03-15T06:37:42;9.59;;;5.49;;
60336;SDS011;46978;50.288;28.624;2023-03-15T06:38:43;9.00;;;5.41;;
60336;SDS011;46978;50.288;28.624;2023-03-15T06:39:45;10.85;;;5.29;;
60336;SDS011;46978;50.288;28.624;2023-03-15T06:40:48;11.36;;;5.20;;
60336;SDS011;46978;50.288;28.624;2023-03-15T06:41:50;10.65;;;5.50;;
60336;SDS011;46978;50.288;28.624;2023-03-15T06:42:52;9.27;;;5.31;;
60336;SDS011;46978;50.288;28.624;2023-03-15T06:43:54;9.25;;;5.86;;
60336;SDS011;46978;50.288;28.624;2023-03-15T06:44:56;10.74;;;5.61;;
60336;SDS011;46978;50.288;28.624;2023-03-15T06:45:58;10.55;;;5.30;;
60336;SDS011;46978;50.288;28.624;2023-03-15T06:46:59;12.85;;;5.86;;
60336;SDS011;46978;50.288;28.624;2023-03-15T06:48:01;9.98;;;5.25;;
60336;SDS011;46978;50.288;28.624;2023-03-15T06:49:03;10.40;;;5.23;;
60336;SDS011;46978;50.288;28.624;2023-03-15T06:50:06;8.61;;;5.14;;
60336;SDS011;46978;50.288;28.624;2023-03-15T06:51:08;9.79;;;5.37;;
60336;SDS011;46978;50.288;28.624;2023-03-15T06:52:09;8.83;;;5.29;;
60336;SDS011;46978;50.288;28.624;2023-03-15T06:53:12;9.75;;;5.69;;
60336;SDS011;46978;50.288;28.624;2023-03-15T06:54:14;9.44;;;5.23;;
60336;SDS011;46978;50.288;28.624;2023-03-15T06:55:15;11.17;;;5.69;;
60336;SDS011;46978;50.288;28.624;2023-03-15T06:56:17;9.54;;;5.10;;
60336;SDS011;46978;50.288;28.624;2023-03-15T06:57:19;11.19;;;5.32;;
60336;SDS011;46978;50.288;28.624;2023-03-15T06:58:21;9.56;;;5.25;;
60336;SDS011;46978;50.288;28.624;2023-03-15T06:59:23;9.95;;;5.41;;
60336;SDS011;46978;50.288;28.624;2023-03-15T07:00:25;10.73;;;5.43;;
60336;SDS011;46978;50.288;28.624;2023-03-15T07:01:28;13.71;;;5.64;;
60336;SDS011;46978;50.288;28.624;2023-03-15T07:02:30;11.15;;;5.42;;
60336;SDS011;46978;50.288;28.624;2023-03-15T07:03:31;9.51;;;5.50;;
60336;SDS011;46978;50.288;28.624;2023-03-15T07:04:33;8.73;;;5.29;;
60336;SDS011;46978;50.288;28.624;2023-03-15T07:05:35;9.65;;;5.30;;
60336;SDS011;46978;50.288;28.624;2023-03-15T07:06:37;8.92;;;5.83;;
60336;SDS011;46978;50.288;28.624;2023-03-15T07:07:39;10.73;;;5.61;;
60336;SDS011;46978;50.288;28.624;2023-03-15T07:08:41;10.40;;;5.69;;
60336;SDS011;46978;50.288;28.624;2023-03-15T07:09:43;10.69;;;5.51;;
60336;SDS011;46978;50.288;28.624;2023-03-15T07:10:44;11.61;;;6.24;;
60336;SDS011;46978;50.288;28.624;2023-03-15T07:11:46;9.66;;;5.82;;
60336;SDS011;46978;50.288;28.624;2023-03-15T07:12:48;10.80;;;5.61;;
60336;SDS011;46978;50.288;28.624;2023-03-15T07:13:50;13.06;;;5.69;;
60336;SDS011;46978;50.288;28.624;2023-03-15T07:14:54;11.38;;;5.67;;
60336;SDS011;46978;50.288;28.624;2023-03-15T07:15:56;12.15;;;5.39;;
60336;SDS011;46978;50.288;28.624;2023-03-15T07:16:58;9.61;;;5.07;;
60336;SDS011;46978;50.288;28.624;2023-03-15T07:18:00;9.49;;;5.23;;
60336;SDS011;46978;50.288;28.624;2023-03-15T07:19:01;8.53;;;4.93;;
60336;SDS011;46978;50.288;28.624;2023-03-15T07:20:04;11.89;;;5.41;;
60336;SDS011;46978;50.288;28.624;2023-03-15T07:21:06;10.87;;;6.53;;
60336;SDS011;46978;50.288;28.624;2023-03-15T07:22:07;15.04;;;6.15;;
60336;SDS011;46978;50.288;28.624;2023-03-15T07:23:10;13.43;;;7.07;;
60336;SDS011;46978;50.288;28.624;2023-03-15T07:24:11;11.14;;;6.29;;
60336;SDS011;46978;50.288;28.624;2023-03-15T07:25:13;11.44;;;5.54;;
60336;SDS011;46978;50.288;28.624;2023-03-15T07:26:15;11.69;;;5.53;;
60336;SDS011;46978;50.288;28.624;2023-03-15T07:27:17;10.33;;;5.68;;
60336;SDS011;46978;50.288;28.624;2023-03-15T07:28:19;12.85;;;5.86;;
60336;SDS011;46978;50.288;28.624;2023-03-15T07:29:22;10.19;;;5.39;;
60336;SDS011;46978;50.288;28.624;2023-03-15T07:30:24;10.20;;;5.35;;
60336;SDS011;46978;50.288;28.624;2023-03-15T07:31:26;11.95;;;5.95;;
60336;SDS011;46978;50.288;28.624;2023-03-15T07:32:28;12.16;;;5.89;;
60336;SDS011;46978;50.288;28.624;2023-03-15T07:33:30;10.24;;;5.22;;
60336;SDS011;46978;50.288;28.624;2023-03-15T07:34:33;8.56;;;4.78;;
60336;SDS011;46978;50.288;28.624;2023-03-15T07:35:34;9.01;;;5.30;;
60336;SDS011;46978;50.288;28.624;2023-03-15T07:36:36;11.10;;;5.85;;
60336;SDS011;46978;50.288;28.624;2023-03-15T07:37:37;9.75;;;5.82;;
60336;SDS011;46978;50.288;28.624;2023-03-15T07:38:39;11.33;;;5.69;;
60336;SDS011;46978;50.288;28.624;2023-03-15T07:39:41;9.93;;;5.27;;
60336;SDS011;46978;50.288;28.624;2023-03-15T07:40:43;9.57;;;5.51;;
60336;SDS011;46978;50.288;28.624;2023-03-15T07:41:44;10.66;;;5.44;;
60336;SDS011;46978;50.288;28.624;2023-03-15T07:42:46;10.13;;;5.35;;
60336;SDS011;46978;50.288;28.624;2023-03-15T07:43:48;11.47;;;5.36;;
60336;SDS011;46978;50.288;28.624;2023-03-15T07:44:49;9.76;;;5.04;;
60336;SDS011;46978;50.288;28.624;2023-03-15T07:45:51;10.59;;;5.41;;
60336;SDS011;46978;50.288;28.624;2023-03-15T07:46:53;8.46;;;4.79;;
60336;SDS011;46978;50.288;28.624;2023-03-15T07:47:54;10.00;;;5.24;;
60336;SDS011;46978;50.288;28.624;2023-03-15T07:48:56;9.03;;;5.66;;
60336;SDS011;46978;50.288;28.624;2023-03-15T07:49:58;12.50;;;5.61;;
60336;SDS011;46978;50.288;28.624;2023-03-15T07:51:00;10.95;;;6.29;;
60336;SDS011;46978;50.288;28.624;2023-03-15T07:52:02;11.06;;;5.75;;
60336;SDS011;46978;50.288;28.624;2023-03-15T07:53:04;8.99;;;5.45;;
60336;SDS011;46978;50.288;28.624;2023-03-15T07:54:06;10.94;;;5.91;;
60336;SDS011;46978;50.288;28.624;2023-03-15T07:55:08;8.14;;;5.20;;
60336;SDS011;46978;50.288;28.624;2023-03-15T07:56:10;10.13;;;5.99;;
60336;SDS011;46978;50.288;28.624;2023-03-15T07:57:12;6.86;;;5.03;;
60336;SDS011;46978;50.288;28.624;2023-03-15T07:58:14;12.87;;;6.10;;
60336;SDS011;46978;50.288;28.624;2023-03-15T07:59:18;9.37;;;5.81;;
60336;SDS011;46978;50.288;28.624;2023-03-15T08:00:21;12.83;;;6.29;;
60336;SDS011;46978;50.288;28.624;2023-03-15T08:01:23;11.81;;;5.55;;
60336;SDS011;46978;50.288;28.624;2023-03-15T08:02:27;10.84;;;5.62;;
60336;SDS011;46978;50.288;28.624;2023-03-15T08:03:30;10.03;;;4.88;;
60336;SDS011;46978;50.288;28.624;2023-03-15T08:04:37;11.19;;;5.63;;
60336;SDS011;46978;50.288;28.624;2023-03-15T08:05:38;9.56;;;4.95;;
60336;SDS011;46978;50.288;28.624;2023-03-15T08:06:40;8.80;;;4.96;;
60336;SDS011;46978;50.288;28.624;2023-03-15T08:07:41;9.95;;;5.14;;
60336;SDS011;46978;50.288;28.624;2023-03-15T08:08:43;9.49;;;5.29;;
60336;SDS011;46978;50.288;28.624;2023-03-15T08:09:45;11.18;;;5.17;;
60336;SDS011;46978;50.288;28.624;2023-03-15T08:10:48;9.32;;;4.85;;
60336;SDS011;46978;50.288;28.624;2023-03-15T08:11:52;12.34;;;4.83;;
60336;SDS011;46978;50.288;28.624;2023-03-15T08:12:54;8.86;;;5.14;;
60336;SDS011;46978;50.288;28.624;2023-03-15T08:13:56;8.45;;;4.76;;
60336;SDS011;46978;50.288;28.624;2023-03-15T08:14:58;7.33;;;4.57;;
60336;SDS011;46978;50.288;28.624;2023-03-15T08:16:02;7.35;;;4.54;;
60336;SDS011;46978;50.288;28.624;2023-03-15T08:17:06;7.69;;;4.93;;
60336;SDS011;46978;50.288;28.624;2023-03-15T08:18:09;7.94;;;4.31;;
60336;SDS011;46978;50.288;28.624;2023-03-15T08:19:14;7.35;;;4.68;;
60336;SDS011;46978;50.288;28.624;2023-03-15T08:20:18;8.19;;;4.36;;
60336;SDS011;46978;50.288;28.624;2023-03-15T08:21:20;10.15;;;4.30;;
60336;SDS011;46978;50.288;28.624;2023-03-15T08:22:22;7.93;;;4.52;;
60336;SDS011;46978;50.288;28.624;2023-03-15T08:23:24;8.73;;;4.55;;
60336;SDS011;46978;50.288;28.624;2023-03-15T08:24:27;8.08;;;4.53;;
60336;SDS011;46978;50.288;28.624;2023-03-15T08:25:29;9.03;;;4.39;;
60336;SDS011;46978;50.288;28.624;2023-03-15T08:26:34;7.87;;;4.46;;
60336;SDS011;46978;50.288;28.624;2023-03-15T08:27:36;9.51;;;4.04;;
60336;SDS011;46978;50.288;28.624;2023-03-15T08:28:38;9.85;;;4.39;;
60336;SDS011;46978;50.288;28.624;2023-03-15T08:29:40;7.18;;;4.44;;
60336;SDS011;46978;50.288;28.624;2023-03-15T08:30:42;8.12;;;4.52;;
60336;SDS011;46978;50.288;28.624;2023-03-15T08:31:43;8.79;;;4.38;;
60336;SDS011;46978;50.288;28.624;2023-03-15T08:32:46;9.52;;;5.70;;
60336;SDS011;46978;50.288;28.624;2023-03-15T08:33:50;9.54;;;5.69;;
60336;SDS011;46978;50.288;28.624;2023-03-15T08:34:52;12.21;;;5.67;;
60336;SDS011;46978;50.288;28.624;2023-03-15T08:35:54;12.36;;;5.11;;
60336;SDS011;46978;50.288;28.624;2023-03-15T08:36:55;10.66;;;5.39;;
60336;SDS011;46978;50.288;28.624;2023-03-15T08:37:57;10.84;;;6.02;;
60336;SDS011;46978;50.288;28.624;2023-03-15T08:38:59;13.35;;;5.81;;
60336;SDS011;46978;50.288;28.624;2023-03-15T08:40:00;12.84;;;5.79;;
60336;SDS011;46978;50.288;28.624;2023-03-15T08:41:02;10.31;;;5.44;;
60336;SDS011;46978;50.288;28.624;2023-03-15T08:42:04;8.01;;;4.62;;
60336;SDS011;46978;50.288;28.624;2023-03-15T08:43:06;7.39;;;4.66;;
60336;SDS011;46978;50.288;28.624;2023-03-15T08:44:08;9.85;;;4.85;;
60336;SDS011;46978;50.288;28.624;2023-03-15T08:45:10;9.93;;;5.17;;
60336;SDS011;46978;50.288;28.624;2023-03-15T08:46:13;9.13;;;5.19;;
60336;SDS011;46978;50.288;28.624;2023-03-15T08:47:17;9.02;;;4.98;;
60336;SDS011;46978;50.288;28.624;2023-03-15T08:48:19;8.63;;;4.89;;
60336;SDS011;46978;50.288;28.624;2023-03-15T08:49:21;10.59;;;4.78;;
60336;SDS011;46978;50.288;28.624;2023-03-15T08:50:23;8.27;;;4.65;;
60336;SDS011;46978;50.288;28.624;2023-03-15T08:51:27;8.74;;;4.81;;
60336;SDS011;46978;50.288;28.624;2023-03-15T08:52:28;8.79;;;4.91;;
60336;SDS011;46978;50.288;28.624;2023-03-15T08:53:30;9.29;;;4.59;;
60336;SDS011;46978;50.288;28.624;2023-03-15T08:54:33;9.19;;;4.77;;
60336;SDS011;46978;50.288;28.624;2023-03-15T08:55:35;8.27;;;4.77;;
60336;SDS011;46978;50.288;28.624;2023-03-15T08:56:37;8.93;;;4.61;;
60336;SDS011;46978;50.288;28.624;2023-03-15T08:57:39;9.36;;;4.76;;
60336;SDS011;46978;50.288;28.624;2023-03-15T08:58:42;9.64;;;4.52;;
60336;SDS011;46978;50.288;28.624;2023-03-15T08:59:44;10.39;;;4.95;;
60336;SDS011;46978;50.288;28.624;2023-03-15T09:00:49;9.09;;;4.74;;
60336;SDS011;46978;50.288;28.624;2023-03-15T09:01:52;7.87;;;4.28;;
60336;SDS011;46978;50.288;28.624;2023-03-15T09:02:53;8.20;;;4.11;;
60336;SDS011;46978;50.288;28.624;2023-03-15T09:03:56;9.20;;;4.22;;
60336;SDS011;46978;50.288;28.624;2023-03-15T09:04:58;7.17;;;4.34;;
60336;SDS011;46978;50.288;28.624;2023-03-15T09:06:00;6.94;;;3.83;;
60336;SDS011;46978;50.288;28.624;2023-03-15T09:07:02;7.73;;;4.37;;
60336;SDS011;46978;50.288;28.624;2023-03-15T09:08:03;7.08;;;4.26;;